createdAt,value
2023-04-26T00:00:07.540Z,99374.78
2023-04-26T00:02:34.115Z,99373.53
2023-04-26T00:05:01.046Z,99373.38
2023-04-26T00:07:27.778Z,99370.81
2023-04-26T00:09:54.318Z,99365.00
2023-04-26T00:12:20.841Z,99365.13
2023-04-26T00:14:47.688Z,99362.72
2023-04-26T00:17:14.151Z,99353.47
2023-04-26T00:19:40.647Z,99359.72
2023-04-26T00:22:07.178Z,99354.88
2023-04-26T00:24:33.644Z,99358.38
2023-04-26T00:27:00.330Z,99350.72
2023-04-26T00:29:27.151Z,99352.44
2023-04-26T00:31:53.688Z,99341.25
2023-04-26T00:34:20.264Z,99357.50
2023-04-26T00:36:46.801Z,99355.78
2023-04-26T00:39:13.270Z,99355.72
2023-04-26T00:41:39.809Z,99357.03
2023-04-26T00:44:06.332Z,99355.84
2023-04-26T00:46:32.847Z,99378.31
2023-04-26T00:48:59.462Z,99371.47
2023-04-26T00:51:26.345Z,99375.94
2023-04-26T00:53:53.425Z,99376.06
2023-04-26T00:56:21.153Z,99373.50
2023-04-26T00:58:47.670Z,99365.09
2023-04-26T01:01:14.177Z,99384.75
2023-04-26T01:03:40.964Z,99376.03
2023-04-26T01:06:07.721Z,99389.06
2023-04-26T01:08:34.495Z,99401.00
2023-04-26T01:11:01.136Z,99404.53
2023-04-26T01:13:29.594Z,99411.59
2023-04-26T01:15:56.335Z,99412.59
2023-04-26T01:18:22.792Z,99410.41
2023-04-26T01:20:49.284Z,99420.53
2023-04-26T01:23:15.807Z,99408.09
2023-04-26T01:25:42.318Z,99409.97
2023-04-26T01:28:08.838Z,99401.94
2023-04-26T01:30:35.338Z,99404.66
2023-04-26T01:33:01.835Z,99408.03
2023-04-26T01:35:28.367Z,99394.28
2023-04-26T01:37:54.899Z,99392.97
2023-04-26T01:40:21.374Z,99400.28
2023-04-26T01:42:47.952Z,99399.16
2023-04-26T01:45:14.497Z,99395.16
2023-04-26T01:47:41.049Z,99390.75
2023-04-26T01:50:08.329Z,99403.59
2023-04-26T01:52:34.792Z,99408.56
2023-04-26T01:55:01.263Z,99410.53
2023-04-26T01:57:27.772Z,99394.91
2023-04-26T01:59:54.220Z,99396.41
2023-04-26T02:02:20.708Z,99391.66
2023-04-26T02:04:47.262Z,99396.41
2023-04-26T02:07:13.766Z,99384.69
2023-04-26T02:09:40.252Z,99396.16
2023-04-26T02:12:06.822Z,99398.56
2023-04-26T02:14:33.346Z,99401.25
2023-04-26T02:16:59.863Z,99399.19
2023-04-26T02:19:26.408Z,99400.75
2023-04-26T02:21:55.214Z,99409.41
2023-04-26T02:24:21.723Z,99404.31
2023-04-26T02:26:48.214Z,99414.91
2023-04-26T02:29:14.747Z,99412.22
2023-04-26T02:31:41.457Z,99411.34
2023-04-26T02:34:08.024Z,99417.72
2023-04-26T02:36:34.613Z,99406.13
2023-04-26T02:39:01.307Z,99406.38
2023-04-26T02:41:27.840Z,99407.13
2023-04-26T02:43:54.323Z,99411.75
2023-04-26T02:46:20.852Z,99416.50
2023-04-26T02:48:47.368Z,99408.69
2023-04-26T02:51:13.819Z,99418.44
2023-04-26T02:53:40.307Z,99413.44
2023-04-26T02:56:06.979Z,99408.91
2023-04-26T02:58:33.491Z,99406.97
2023-04-26T03:01:01.702Z,99414.88
2023-04-26T03:03:28.897Z,99397.97
2023-04-26T03:05:55.525Z,99400.53
2023-04-26T03:08:22.112Z,99398.81
2023-04-26T03:10:48.597Z,99393.69
2023-04-26T03:13:15.090Z,99399.03
2023-04-26T03:15:45.866Z,99398.81
2023-04-26T03:18:12.400Z,99392.97
2023-04-26T03:20:38.872Z,99390.28
2023-04-26T03:23:05.376Z,99388.19
2023-04-26T03:25:33.286Z,99387.72
2023-04-26T03:27:59.997Z,99380.06
2023-04-26T03:30:26.492Z,99379.81
2023-04-26T03:32:53.260Z,99378.94
2023-04-26T03:35:19.794Z,99370.66
2023-04-26T03:37:46.298Z,99373.94
2023-04-26T03:40:12.902Z,99381.84
2023-04-26T03:42:39.391Z,99377.34
2023-04-26T03:45:06.565Z,99364.06
2023-04-26T03:47:33.159Z,99366.03
2023-04-26T03:49:59.820Z,99366.28
2023-04-26T03:52:26.396Z,99372.50
2023-04-26T03:54:52.974Z,99379.31
2023-04-26T03:57:19.453Z,99383.47
2023-04-26T03:59:45.958Z,99393.56
2023-04-26T04:02:12.578Z,99406.72
2023-04-26T04:04:39.237Z,99401.50
2023-04-26T04:07:05.841Z,99408.81
2023-04-26T04:09:32.322Z,99406.88
2023-04-26T04:11:58.815Z,99406.16
2023-04-26T04:14:25.276Z,99415.44
2023-04-26T04:16:51.790Z,99414.16
2023-04-26T04:19:18.424Z,99427.16
2023-04-26T04:21:44.878Z,99434.94
2023-04-26T04:24:11.421Z,99436.81
2023-04-26T04:26:37.887Z,99436.22
2023-04-26T04:29:04.415Z,99440.63
2023-04-26T04:31:30.923Z,99442.16
2023-04-26T04:33:57.460Z,99441.13
2023-04-26T04:36:23.943Z,99434.72
2023-04-26T04:38:50.528Z,99438.03
2023-04-26T04:41:17.252Z,99449.19
2023-04-26T04:43:43.717Z,99441.59
2023-04-26T04:46:12.442Z,99436.34
2023-04-26T04:48:39.240Z,99432.88
2023-04-26T04:51:05.740Z,99433.00
2023-04-26T04:53:32.281Z,99429.94
2023-04-26T04:55:58.777Z,99426.63
2023-04-26T04:58:25.360Z,99429.84
2023-04-26T05:00:51.927Z,99432.50
2023-04-26T05:03:18.520Z,99416.06
2023-04-26T05:05:45.181Z,99415.66
2023-04-26T05:08:11.676Z,99414.78
2023-04-26T05:10:38.183Z,99425.94
2023-04-26T05:13:04.734Z,99433.91
2023-04-26T05:15:31.370Z,99435.16
2023-04-26T05:17:57.879Z,99440.84
2023-04-26T05:20:24.390Z,99432.03
2023-04-26T05:22:50.986Z,99442.03
2023-04-26T05:25:17.704Z,99436.63
2023-04-26T05:27:44.431Z,99450.91
2023-04-26T05:30:11.436Z,99448.91
2023-04-26T05:32:38.005Z,99446.91
2023-04-26T05:35:04.841Z,99444.91
2023-04-26T05:37:31.231Z,99446.03
2023-04-26T05:39:57.804Z,99445.91
2023-04-26T05:42:24.283Z,99450.31
2023-04-26T05:44:50.860Z,99446.78
2023-04-26T05:47:17.377Z,99456.25
2023-04-26T05:49:43.878Z,99463.16
2023-04-26T05:52:10.385Z,99475.41
2023-04-26T05:54:36.880Z,99464.94
2023-04-26T05:57:03.599Z,99457.47
2023-04-26T05:59:30.087Z,99466.22
2023-04-26T06:01:56.607Z,99471.19
2023-04-26T06:04:23.275Z,99466.28
2023-04-26T06:06:49.762Z,99468.72
2023-04-26T06:09:17.822Z,99481.84
2023-04-26T06:11:45.422Z,99479.38
2023-04-26T06:14:20.027Z,99485.91
2023-04-26T06:16:57.320Z,99487.72
2023-04-26T06:19:23.889Z,99485.41
2023-04-26T06:21:50.358Z,99495.13
2023-04-26T06:24:16.843Z,99489.22
2023-04-26T06:26:43.353Z,99483.09
2023-04-26T06:29:09.819Z,99500.09
2023-04-26T06:31:36.365Z,99507.63
2023-04-26T06:34:02.949Z,99503.38
2023-04-26T06:36:29.511Z,99509.75
2023-04-26T06:38:56.034Z,99497.47
2023-04-26T06:41:22.589Z,99506.16
2023-04-26T06:43:49.353Z,99498.09
2023-04-26T06:46:15.862Z,99493.44
2023-04-26T06:48:42.362Z,99488.22
2023-04-26T06:51:09.180Z,99492.41
2023-04-26T06:53:35.942Z,99500.63
2023-04-26T06:56:02.665Z,99494.34
2023-04-26T06:58:29.294Z,99495.78
2023-04-26T07:00:55.766Z,99493.09
2023-04-26T07:03:22.430Z,99495.72
2023-04-26T07:05:48.972Z,99482.41
2023-04-26T07:08:15.492Z,99481.59
2023-04-26T07:10:42.261Z,99479.00
2023-04-26T07:13:09.661Z,99479.13
2023-04-26T07:15:36.298Z,99479.41
2023-04-26T07:18:02.897Z,99487.13
2023-04-26T07:20:29.461Z,99488.22
2023-04-26T07:22:55.928Z,99489.69
2023-04-26T07:25:22.424Z,99498.81
2023-04-26T07:27:48.881Z,99499.41
2023-04-26T07:30:15.384Z,99507.22
2023-04-26T07:32:42.047Z,99509.81
2023-04-26T07:35:10.156Z,99511.47
2023-04-26T07:37:36.635Z,99509.19
2023-04-26T07:40:03.263Z,99512.50
2023-04-26T07:42:29.734Z,99521.69
2023-04-26T07:44:56.285Z,99510.63
2023-04-26T07:47:22.921Z,99506.84
2023-04-26T07:49:53.555Z,99508.88
2023-04-26T07:52:20.239Z,99512.81
2023-04-26T07:54:46.764Z,99508.56
2023-04-26T07:57:13.297Z,99508.56
2023-04-26T07:59:39.797Z,99516.66
2023-04-26T08:02:06.436Z,99506.34
2023-04-26T08:04:34.259Z,99510.13
2023-04-26T08:07:01.393Z,99507.06
2023-04-26T08:09:28.961Z,99497.94
2023-04-26T08:11:55.448Z,99511.47
2023-04-26T08:14:22.017Z,99497.81
2023-04-26T08:16:48.564Z,99508.31
2023-04-26T08:19:15.077Z,99510.31
2023-04-26T08:21:41.614Z,99512.34
2023-04-26T08:24:08.216Z,99512.53
2023-04-26T08:26:34.673Z,99505.56
2023-04-26T08:29:01.146Z,99510.72
2023-04-26T08:31:27.745Z,99506.03
2023-04-26T08:33:54.538Z,99510.06
2023-04-26T08:36:21.184Z,99500.47
2023-04-26T08:38:47.710Z,99523.06
2023-04-26T08:41:22.619Z,99502.47
2023-04-26T08:43:50.198Z,99496.88
2023-04-26T08:46:19.626Z,99501.25
2023-04-26T08:48:54.653Z,99494.59
2023-04-26T08:51:22.015Z,99516.91
2023-04-26T08:53:51.728Z,99520.25
2023-04-26T08:56:18.538Z,99511.78
2023-04-26T08:58:45.142Z,99526.53
2023-04-26T09:01:15.140Z,99513.09
2023-04-26T09:03:41.853Z,99521.63
2023-04-26T09:06:09.027Z,99515.97
2023-04-26T09:08:39.824Z,99523.97
2023-04-26T09:11:06.339Z,99530.59
2023-04-26T09:13:32.897Z,99536.75
2023-04-26T09:15:59.711Z,99536.38
2023-04-26T09:18:27.038Z,99527.44
2023-04-26T09:21:07.859Z,99536.44
2023-04-26T09:23:35.277Z,99533.03
2023-04-26T09:26:21.390Z,99543.09
2023-04-26T09:28:48.058Z,99544.13
2023-04-26T09:31:37.840Z,99539.81
2023-04-26T09:34:04.552Z,99540.56
2023-04-26T09:36:31.130Z,99541.03
2023-04-26T09:38:58.055Z,99543.41
2023-04-26T09:41:24.568Z,99544.47
2023-04-26T09:43:52.657Z,99543.38
2023-04-26T09:46:23.256Z,99548.09
2023-04-26T09:49:01.276Z,99551.00
2023-04-26T09:51:27.784Z,99552.75
2023-04-26T09:53:55.608Z,99552.47
2023-04-26T09:56:23.160Z,99557.09
2023-04-26T09:58:58.500Z,99557.78
2023-04-26T10:01:27.065Z,99559.41
2023-04-26T10:03:55.390Z,99555.00
2023-04-26T10:06:23.637Z,99555.88
2023-04-26T10:08:50.167Z,99542.34
2023-04-26T10:11:18.150Z,99545.19
2023-04-26T10:13:44.615Z,99542.44
2023-04-26T10:16:11.192Z,99541.44
2023-04-26T10:18:38.010Z,99553.16
2023-04-26T10:21:10.167Z,99550.88
2023-04-26T10:23:37.399Z,99543.06
2023-04-26T10:26:04.092Z,99553.69
2023-04-26T10:28:45.616Z,99569.09
2023-04-26T10:31:12.521Z,99572.13
2023-04-26T10:33:39.159Z,99553.16
2023-04-26T10:36:13.297Z,99549.06
2023-04-26T10:39:28.813Z,99548.38
2023-04-26T10:42:17.985Z,99577.31
2023-04-26T10:44:44.485Z,99570.56
2023-04-26T10:47:34.437Z,99556.50
2023-04-26T10:50:11.220Z,99560.13
2023-04-26T10:53:02.722Z,99557.97
2023-04-26T10:55:42.652Z,99557.97
2023-04-26T10:58:34.949Z,99563.84
2023-04-26T11:01:08.831Z,99565.00
2023-04-26T11:03:35.660Z,99563.31
2023-04-26T11:06:06.849Z,99554.69
2023-04-26T11:08:33.353Z,99557.63
2023-04-26T11:11:11.574Z,99552.72
2023-04-26T11:13:43.331Z,99571.28
2023-04-26T11:16:14.906Z,99576.41
2023-04-26T11:18:45.814Z,99565.41
2023-04-26T11:21:12.897Z,99568.69
2023-04-26T11:23:40.010Z,99571.81
2023-04-26T11:26:08.153Z,99569.75
2023-04-26T11:28:37.042Z,99559.72
2023-04-26T11:31:05.059Z,99581.03
2023-04-26T11:33:32.283Z,99559.31
2023-04-26T11:35:58.904Z,99566.69
2023-04-26T11:38:26.079Z,99558.91
2023-04-26T11:41:00.729Z,99574.28
2023-04-26T11:43:37.976Z,99570.81
2023-04-26T11:46:08.922Z,99549.41
2023-04-26T11:48:37.659Z,99568.91
2023-04-26T11:51:05.429Z,99572.56
2023-04-26T11:53:41.971Z,99570.69
2023-04-26T11:56:19.437Z,99572.56
2023-04-26T11:58:55.237Z,99569.66
2023-04-26T12:01:23.936Z,99568.94
2023-04-26T12:03:52.369Z,99572.06
2023-04-26T12:06:19.861Z,99576.16
2023-04-26T12:08:50.878Z,99584.06
2023-04-26T12:11:18.314Z,99582.53
2023-04-26T12:13:46.559Z,99581.44
2023-04-26T12:16:25.781Z,99581.03
2023-04-26T12:18:54.915Z,99582.28
2023-04-26T12:21:21.625Z,99585.75
2023-04-26T12:23:48.051Z,99582.41
2023-04-26T12:26:15.137Z,99572.91
2023-04-26T12:28:42.080Z,99569.91
2023-04-26T12:31:08.731Z,99577.25
2023-04-26T12:33:35.239Z,99584.47
2023-04-26T12:36:12.613Z,99579.25
2023-04-26T12:38:39.505Z,99577.47
2023-04-26T12:41:06.374Z,99582.09
2023-04-26T12:43:33.043Z,99580.47
2023-04-26T12:46:00.438Z,99576.41
2023-04-26T12:48:26.977Z,99567.25
2023-04-26T12:50:53.489Z,99572.38
2023-04-26T12:53:19.966Z,99579.19
2023-04-26T12:55:46.514Z,99589.25
2023-04-26T12:58:13.395Z,99593.19
2023-04-26T13:00:40.081Z,99585.59
2023-04-26T13:03:06.744Z,99597.19
2023-04-26T13:05:33.457Z,99588.69
2023-04-26T13:07:59.996Z,99596.16
2023-04-26T13:10:26.492Z,99591.22
2023-04-26T13:12:52.996Z,99592.09
2023-04-26T13:15:19.637Z,99584.06
2023-04-26T13:17:46.146Z,99589.47
2023-04-26T13:20:13.222Z,99587.13
2023-04-26T13:22:39.745Z,99587.72
2023-04-26T13:25:06.720Z,99581.31
2023-04-26T13:27:33.257Z,99579.00
2023-04-26T13:29:59.802Z,99592.69
2023-04-26T13:32:26.426Z,99594.56
2023-04-26T13:34:53.036Z,99576.56
2023-04-26T13:37:20.100Z,99589.28
2023-04-26T13:39:47.261Z,99571.19
2023-04-26T13:42:15.181Z,99568.47
2023-04-26T13:44:41.806Z,99597.56
2023-04-26T13:47:08.294Z,99591.38
2023-04-26T13:49:34.778Z,99593.59
2023-04-26T13:52:01.233Z,99581.13
2023-04-26T13:54:27.770Z,99581.69
2023-04-26T13:56:54.254Z,99594.25
2023-04-26T13:59:20.755Z,99589.69
2023-04-26T14:01:47.278Z,99589.59
2023-04-26T14:04:14.074Z,99586.97
2023-04-26T14:06:40.742Z,99606.63
2023-04-26T14:09:07.294Z,99587.41
2023-04-26T14:11:33.877Z,99591.59
2023-04-26T14:14:00.350Z,99591.66
2023-04-26T14:16:27.205Z,99589.94
2023-04-26T14:18:53.767Z,99594.59
2023-04-26T14:21:20.361Z,99601.91
2023-04-26T14:23:46.973Z,99604.63
2023-04-26T14:26:13.503Z,99598.47
2023-04-26T14:28:40.226Z,99620.94
2023-04-26T14:31:06.601Z,99617.97
2023-04-26T14:33:33.094Z,99609.38
2023-04-26T14:35:59.652Z,99620.06
2023-04-26T14:38:26.216Z,99627.16
2023-04-26T14:40:52.792Z,99634.09
2023-04-26T14:43:19.303Z,99633.19
2023-04-26T14:45:45.853Z,99627.44
2023-04-26T14:48:12.442Z,99643.91
2023-04-26T14:50:38.965Z,99626.00
2023-04-26T14:53:05.493Z,99631.72
2023-04-26T14:55:32.077Z,99638.09
2023-04-26T14:57:58.619Z,99644.41
2023-04-26T15:00:25.188Z,99636.84
2023-04-26T15:02:51.906Z,99641.69
2023-04-26T15:05:18.640Z,99648.78
2023-04-26T15:07:45.147Z,99656.28
2023-04-26T15:10:11.637Z,99655.03
2023-04-26T15:12:38.161Z,99660.22
2023-04-26T15:15:05.073Z,99670.13
2023-04-26T15:17:32.644Z,99669.97
2023-04-26T15:19:59.236Z,99671.91
2023-04-26T15:22:25.754Z,99667.78
2023-04-26T15:24:52.304Z,99671.09
2023-04-26T15:27:18.802Z,99672.81
2023-04-26T15:29:45.390Z,99682.41
2023-04-26T15:32:11.885Z,99682.72
2023-04-26T15:34:40.316Z,99691.59
2023-04-26T15:37:06.799Z,99698.66
2023-04-26T15:39:33.367Z,99702.78
2023-04-26T15:41:59.878Z,99699.03
2023-04-26T15:44:26.392Z,99701.38
2023-04-26T15:46:52.857Z,99709.13
2023-04-26T15:49:19.384Z,99717.41
2023-04-26T15:51:45.857Z,99718.13
2023-04-26T15:54:12.352Z,99728.09
2023-04-26T15:56:38.916Z,99726.53
2023-04-26T15:59:05.401Z,99722.81
2023-04-26T16:01:31.942Z,99732.31
2023-04-26T16:03:58.671Z,99730.00
2023-04-26T16:06:25.203Z,99730.09
2023-04-26T16:08:51.736Z,99733.31
2023-04-26T16:11:18.226Z,99745.13
2023-04-26T16:13:44.759Z,99739.47
2023-04-26T16:16:12.523Z,99741.56
2023-04-26T16:18:39.071Z,99747.88
2023-04-26T16:21:08.211Z,99745.50
2023-04-26T16:23:35.158Z,99751.66
2023-04-26T16:26:01.765Z,99740.31
2023-04-26T16:28:28.449Z,99764.69
2023-04-26T16:30:55.010Z,99765.19
2023-04-26T16:33:22.989Z,99765.84
2023-04-26T16:35:51.427Z,99775.72
2023-04-26T16:38:18.644Z,99788.28
2023-04-26T16:40:45.303Z,99793.66
2023-04-26T16:43:11.785Z,99794.81
2023-04-26T16:45:38.320Z,99807.84
2023-04-26T16:48:05.034Z,99813.38
2023-04-26T16:50:31.582Z,99813.66
2023-04-26T16:52:58.069Z,99821.28
2023-04-26T16:55:24.542Z,99822.56
2023-04-26T16:57:51.008Z,99826.06
2023-04-26T17:00:17.866Z,99833.84
2023-04-26T17:02:44.446Z,99836.84
2023-04-26T17:05:11.250Z,99842.59
2023-04-26T17:07:37.892Z,99850.53
2023-04-26T17:10:04.807Z,99858.59
2023-04-26T17:12:31.292Z,99867.91
2023-04-26T17:14:57.817Z,99863.81
2023-04-26T17:17:24.347Z,99876.94
2023-04-26T17:19:50.848Z,99862.97
2023-04-26T17:22:17.361Z,99868.66
2023-04-26T17:24:43.870Z,99879.78
2023-04-26T17:27:10.353Z,99889.41
2023-04-26T17:29:36.864Z,99881.03
2023-04-26T17:32:03.521Z,99880.38
2023-04-26T17:34:30.165Z,99889.50
2023-04-26T17:36:56.671Z,99902.28
2023-04-26T17:39:23.211Z,99907.59
2023-04-26T17:41:49.697Z,99903.78
2023-04-26T17:44:16.229Z,99916.22
2023-04-26T17:46:42.699Z,99924.09
2023-04-26T17:49:09.187Z,99926.72
2023-04-26T17:51:35.903Z,99931.88
2023-04-26T17:54:02.408Z,99933.88
2023-04-26T17:56:28.888Z,99938.31
2023-04-26T17:58:55.402Z,99937.22
2023-04-26T18:01:21.977Z,99946.31
2023-04-26T18:03:48.682Z,99950.63
2023-04-26T18:06:15.276Z,99948.91
2023-04-26T18:08:41.736Z,99948.06
2023-04-26T18:11:08.255Z,99959.59
2023-04-26T18:13:34.794Z,99955.59
2023-04-26T18:16:01.265Z,99961.31
2023-04-26T18:18:28.083Z,99960.91
2023-04-26T18:20:54.699Z,99965.50
2023-04-26T18:23:21.374Z,99969.31
2023-04-26T18:25:48.079Z,99963.94
2023-04-26T18:28:14.619Z,99973.22
2023-04-26T18:30:41.152Z,99975.34
2023-04-26T18:33:07.733Z,99979.16
2023-04-26T18:35:34.289Z,99980.63
2023-04-26T18:38:00.764Z,99977.50
2023-04-26T18:40:27.266Z,99987.31
2023-04-26T18:42:53.819Z,99987.31
2023-04-26T18:45:20.316Z,99990.00
2023-04-26T18:47:46.802Z,99991.69
2023-04-26T18:50:13.371Z,99992.44
2023-04-26T18:52:39.860Z,99990.28
2023-04-26T18:55:07.126Z,99992.56
2023-04-26T18:57:33.663Z,99996.13
2023-04-26T19:00:00.168Z,99996.41
2023-04-26T19:02:26.752Z,99987.16
2023-04-26T19:04:53.491Z,99991.84
2023-04-26T19:07:20.220Z,99994.69
2023-04-26T19:09:54.022Z,99991.81
2023-04-26T19:12:21.399Z,100001.25
2023-04-26T19:14:47.879Z,100007.19
2023-04-26T19:17:14.347Z,100004.78
2023-04-26T19:19:40.876Z,100003.22
2023-04-26T19:22:07.415Z,100002.94
2023-04-26T19:24:33.911Z,100005.19
2023-04-26T19:27:00.399Z,100001.78
2023-04-26T19:29:26.848Z,100002.19
2023-04-26T19:31:53.397Z,100005.59
2023-04-26T19:34:19.989Z,99999.06
2023-04-26T19:36:46.479Z,100001.03
2023-04-26T19:39:12.957Z,100001.47
2023-04-26T19:41:39.491Z,100007.13
2023-04-26T19:44:06.010Z,100013.38
2023-04-26T19:46:32.572Z,100014.53
2023-04-26T19:48:59.139Z,100010.66
2023-04-26T19:51:25.628Z,100024.47
2023-04-26T19:53:52.121Z,100025.00
2023-04-26T19:56:18.628Z,100026.84
2023-04-26T19:58:45.139Z,100029.13
2023-04-26T20:01:11.680Z,100035.63
2023-04-26T20:03:38.496Z,100041.91
2023-04-26T20:06:05.153Z,100033.34
2023-04-26T20:08:31.809Z,100042.91
2023-04-26T20:11:02.345Z,100042.47
2023-04-26T20:13:29.001Z,100044.72
2023-04-26T20:15:55.551Z,100056.63
2023-04-26T20:18:22.176Z,100053.66
2023-04-26T20:20:48.690Z,100049.97
2023-04-26T20:23:15.745Z,100058.94
2023-04-26T20:25:42.260Z,100065.59
2023-04-26T20:28:08.765Z,100063.31
2023-04-26T20:30:35.288Z,100060.75
2023-04-26T20:33:01.853Z,100072.34
2023-04-26T20:35:28.407Z,100070.03
2023-04-26T20:37:56.200Z,100075.97
2023-04-26T20:40:22.804Z,100077.63
2023-04-26T20:42:49.346Z,100084.00
2023-04-26T20:45:15.902Z,100088.25
2023-04-26T20:47:42.486Z,100074.28
2023-04-26T20:50:09.438Z,100085.56
2023-04-26T20:52:35.930Z,100082.88
2023-04-26T20:55:02.493Z,100077.88
2023-04-26T20:57:29.062Z,100085.84
2023-04-26T20:59:55.543Z,100087.25
2023-04-26T21:02:22.215Z,100089.44
2023-04-26T21:04:49.241Z,100083.44
2023-04-26T21:07:15.800Z,100083.56
2023-04-26T21:09:42.332Z,100095.00
2023-04-26T21:12:08.856Z,100089.25
2023-04-26T21:14:35.344Z,100093.81
2023-04-26T21:17:01.842Z,100094.78
2023-04-26T21:19:28.397Z,100101.31
2023-04-26T21:21:54.870Z,100104.50
2023-04-26T21:24:21.393Z,100107.72
2023-04-26T21:26:47.863Z,100113.13
2023-04-26T21:29:14.391Z,100110.66
2023-04-26T21:31:40.984Z,100119.16
2023-04-26T21:34:07.513Z,100121.25
2023-04-26T21:36:33.988Z,100126.28
2023-04-26T21:39:00.496Z,100132.03
2023-04-26T21:41:26.999Z,100126.53
2023-04-26T21:43:53.472Z,100129.25
2023-04-26T21:46:20.023Z,100131.06
2023-04-26T21:48:46.574Z,100137.19
2023-04-26T21:51:13.071Z,100129.47
2023-04-26T21:53:39.558Z,100133.41
2023-04-26T21:56:06.266Z,100129.34
2023-04-26T21:58:32.725Z,100141.13
2023-04-26T22:01:10.377Z,100129.88
2023-04-26T22:03:37.596Z,100132.69
2023-04-26T22:06:07.734Z,100140.16
2023-04-26T22:08:34.424Z,100134.53
2023-04-26T22:11:01.384Z,100137.59
2023-04-26T22:13:28.041Z,100139.69
2023-04-26T22:15:54.634Z,100130.13
2023-04-26T22:18:21.100Z,100143.09
2023-04-26T22:20:47.676Z,100145.19
2023-04-26T22:23:14.182Z,100152.91
2023-04-26T22:25:40.723Z,100150.94
2023-04-26T22:28:07.218Z,100148.84
2023-04-26T22:30:33.715Z,100148.25
2023-04-26T22:33:00.304Z,100155.81
2023-04-26T22:35:28.130Z,100146.88
2023-04-26T22:37:55.153Z,100149.94
2023-04-26T22:40:21.874Z,100143.19
2023-04-26T22:42:48.363Z,100145.16
2023-04-26T22:45:14.909Z,100146.13
2023-04-26T22:47:41.436Z,100151.88
2023-04-26T22:50:08.467Z,100144.78
2023-04-26T22:52:35.526Z,100158.34
2023-04-26T22:55:02.432Z,100157.13
2023-04-26T22:57:30.003Z,100160.38
2023-04-26T22:59:57.042Z,100161.25
2023-04-26T23:02:24.194Z,100157.69
2023-04-26T23:04:50.671Z,100159.25
2023-04-26T23:07:17.300Z,100154.22
2023-04-26T23:09:43.865Z,100159.41
2023-04-26T23:12:10.496Z,100163.53
2023-04-26T23:14:37.099Z,100166.13
2023-04-26T23:17:03.641Z,100165.16
2023-04-26T23:19:30.149Z,100171.72
2023-04-26T23:21:56.726Z,100168.28
2023-04-26T23:24:23.301Z,100174.16
2023-04-26T23:26:49.807Z,100167.19
2023-04-26T23:29:16.362Z,100161.03
2023-04-26T23:31:43.029Z,100169.88
2023-04-26T23:34:09.717Z,100170.31
2023-04-26T23:36:36.275Z,100167.09
2023-04-26T23:39:02.872Z,100163.06
2023-04-26T23:41:29.357Z,100172.31
2023-04-26T23:43:55.850Z,100168.03
2023-04-26T23:46:22.530Z,100168.34
2023-04-26T23:48:49.062Z,100166.00
2023-04-26T23:51:15.621Z,100172.47
2023-04-26T23:53:42.151Z,100168.47
2023-04-26T23:56:08.619Z,100168.25
2023-04-26T23:58:35.089Z,100166.53
